sensor_id;sensor_type;location;lat;lon;timestamp;temperature;humidity
8711;DHT22;4392;47.400;8.062;2024-02-16T00:00:01;13.20;97.30
8711;DHT22;4392;47.400;8.062;2024-02-16T00:02:27;12.70;98.30
8711;DHT22;4392;47.400;8.062;2024-02-16T00:04:52;12.40;99.90
8711;DHT22;4392;47.400;8.062;2024-02-16T00:07:19;12.70;99.90
8711;DHT22;4392;47.400;8.062;2024-02-16T00:09:44;13.20;99.90
8711;DHT22;4392;47.400;8.062;2024-02-16T00:12:10;13.30;99.90
8711;DHT22;4392;47.400;8.062;2024-02-16T00:14:36;13.40;96.80
8711;DHT22;4392;47.400;8.062;2024-02-16T00:17:03;13.10;99.90
8711;DHT22;4392;47.400;8.062;2024-02-16T00:19:30;13.10;97.90
8711;DHT22;4392;47.400;8.062;2024-02-16T00:21:56;12.90;99.50
8711;DHT22;4392;47.400;8.062;2024-02-16T00:24:22;12.70;98.60
8711;DHT22;4392;47.400;8.062;2024-02-16T00:26:48;12.50;98.70
8711;DHT22;4392;47.400;8.062;2024-02-16T00:29:15;12.40;99.80
8711;DHT22;4392;47.400;8.062;2024-02-16T00:31:40;12.70;99.90
8711;DHT22;4392;47.400;8.062;2024-02-16T00:34:08;12.70;99.90
8711;DHT22;4392;47.400;8.062;2024-02-16T00:36:34;12.70;99.90
8711;DHT22;4392;47.400;8.062;2024-02-16T00:38:59;12.90;99.90
8711;DHT22;4392;47.400;8.062;2024-02-16T00:41:32;12.60;99.70
8711;DHT22;4392;47.400;8.062;2024-02-16T00:43:58;12.40;99.90
8711;DHT22;4392;47.400;8.062;2024-02-16T00:46:24;12.40;99.90
8711;DHT22;4392;47.400;8.062;2024-02-16T00:48:51;12.40;99.90
8711;DHT22;4392;47.400;8.062;2024-02-16T00:51:16;12.40;99.90
8711;DHT22;4392;47.400;8.062;2024-02-16T00:53:42;12.30;99.90
8711;DHT22;4392;47.400;8.062;2024-02-16T00:56:08;12.10;99.90
8711;DHT22;4392;47.400;8.062;2024-02-16T00:58:37;12.10;99.90
8711;DHT22;4392;47.400;8.062;2024-02-16T01:01:05;12.00;99.90
8711;DHT22;4392;47.400;8.062;2024-02-16T01:03:32;12.20;99.90
8711;DHT22;4392;47.400;8.062;2024-02-16T01:05:58;12.50;99.90
8711;DHT22;4392;47.400;8.062;2024-02-16T01:08:23;12.40;99.90
8711;DHT22;4392;47.400;8.062;2024-02-16T01:10:49;12.40;99.90
8711;DHT22;4392;47.400;8.062;2024-02-16T01:13:14;12.40;99.90
8711;DHT22;4392;47.400;8.062;2024-02-16T01:15:40;12.20;99.90
8711;DHT22;4392;47.400;8.062;2024-02-16T01:18:08;12.20;99.90
8711;DHT22;4392;47.400;8.062;2024-02-16T01:20:34;12.20;99.90
8711;DHT22;4392;47.400;8.062;2024-02-16T01:23:00;12.00;99.90
8711;DHT22;4392;47.400;8.062;2024-02-16T01:25:26;12.00;99.90
8711;DHT22;4392;47.400;8.062;2024-02-16T01:27:54;12.20;99.90
8711;DHT22;4392;47.400;8.062;2024-02-16T01:30:20;12.20;99.90
8711;DHT22;4392;47.400;8.062;2024-02-16T01:32:46;12.30;99.90
8711;DHT22;4392;47.400;8.062;2024-02-16T01:35:12;12.30;99.90
8711;DHT22;4392;47.400;8.062;2024-02-16T01:37:40;12.30;99.90
8711;DHT22;4392;47.400;8.062;2024-02-16T01:40:07;12.20;99.90
8711;DHT22;4392;47.400;8.062;2024-02-16T01:42:34;12.20;99.90
8711;DHT22;4392;47.400;8.062;2024-02-16T01:45:00;13.10;99.90
8711;DHT22;4392;47.400;8.062;2024-02-16T01:47:26;13.00;98.10
8711;DHT22;4392;47.400;8.062;2024-02-16T01:49:51;12.50;98.70
8711;DHT22;4392;47.400;8.062;2024-02-16T01:52:17;12.20;99.70
8711;DHT22;4392;47.400;8.062;2024-02-16T01:54:43;12.00;99.90
8711;DHT22;4392;47.400;8.062;2024-02-16T01:57:09;11.80;99.90
8711;DHT22;4392;47.400;8.062;2024-02-16T01:59:36;11.70;99.90
8711;DHT22;4392;47.400;8.062;2024-02-16T02:02:02;11.70;99.90
8711;DHT22;4392;47.400;8.062;2024-02-16T02:04:28;11.70;99.90
8711;DHT22;4392;47.400;8.062;2024-02-16T02:06:54;12.70;99.90
8711;DHT22;4392;47.400;8.062;2024-02-16T02:09:19;13.20;99.30
8711;DHT22;4392;47.400;8.062;2024-02-16T02:11:45;12.80;98.30
8711;DHT22;4392;47.400;8.062;2024-02-16T02:14:11;12.40;99.10
8711;DHT22;4392;47.400;8.062;2024-02-16T02:16:36;12.10;99.80
8711;DHT22;4392;47.400;8.062;2024-02-16T02:19:03;11.90;99.90
8711;DHT22;4392;47.400;8.062;2024-02-16T02:21:28;11.80;99.90
8711;DHT22;4392;47.400;8.062;2024-02-16T02:23:54;11.90;99.90
8711;DHT22;4392;47.400;8.062;2024-02-16T02:26:22;11.80;99.90
8711;DHT22;4392;47.400;8.062;2024-02-16T02:28:47;11.70;99.90
8711;DHT22;4392;47.400;8.062;2024-02-16T02:31:13;11.60;99.90
8711;DHT22;4392;47.400;8.062;2024-02-16T02:33:39;11.50;99.90
8711;DHT22;4392;47.400;8.062;2024-02-16T02:36:05;11.50;99.90
8711;DHT22;4392;47.400;8.062;2024-02-16T02:38:30;11.40;99.90
8711;DHT22;4392;47.400;8.062;2024-02-16T02:40:56;11.40;99.90
8711;DHT22;4392;47.400;8.062;2024-02-16T02:43:22;11.40;99.90
8711;DHT22;4392;47.400;8.062;2024-02-16T02:45:48;11.40;99.90
8711;DHT22;4392;47.400;8.062;2024-02-16T02:48:14;11.40;99.90
8711;DHT22;4392;47.400;8.062;2024-02-16T02:50:40;11.40;99.90
8711;DHT22;4392;47.400;8.062;2024-02-16T02:53:05;11.30;99.90
8711;DHT22;4392;47.400;8.062;2024-02-16T02:55:31;11.40;99.90
8711;DHT22;4392;47.400;8.062;2024-02-16T02:57:57;11.40;99.90
8711;DHT22;4392;47.400;8.062;2024-02-16T03:00:23;11.30;99.90
8711;DHT22;4392;47.400;8.062;2024-02-16T03:02:49;11.40;99.90
8711;DHT22;4392;47.400;8.062;2024-02-16T03:05:14;12.70;99.90
8711;DHT22;4392;47.400;8.062;2024-02-16T03:07:40;12.80;99.90
8711;DHT22;4392;47.400;8.062;2024-02-16T03:10:07;12.70;99.90
8711;DHT22;4392;47.400;8.062;2024-02-16T03:12:34;13.10;99.90
8711;DHT22;4392;47.400;8.062;2024-02-16T03:15:00;12.90;99.30
8711;DHT22;4392;47.400;8.062;2024-02-16T03:17:26;12.40;99.70
8711;DHT22;4392;47.400;8.062;2024-02-16T03:19:52;12.10;99.90
8711;DHT22;4392;47.400;8.062;2024-02-16T03:22:20;11.80;99.90
8711;DHT22;4392;47.400;8.062;2024-02-16T03:24:46;11.70;99.90
8711;DHT22;4392;47.400;8.062;2024-02-16T03:27:12;11.70;99.90
8711;DHT22;4392;47.400;8.062;2024-02-16T03:29:37;11.60;99.90
8711;DHT22;4392;47.400;8.062;2024-02-16T03:32:03;11.60;99.90
8711;DHT22;4392;47.400;8.062;2024-02-16T03:34:29;11.50;99.90
8711;DHT22;4392;47.400;8.062;2024-02-16T03:36:55;11.50;99.90
8711;DHT22;4392;47.400;8.062;2024-02-16T03:39:21;11.30;99.90
8711;DHT22;4392;47.400;8.062;2024-02-16T03:41:46;11.30;99.90
8711;DHT22;4392;47.400;8.062;2024-02-16T03:44:15;11.20;99.90
8711;DHT22;4392;47.400;8.062;2024-02-16T03:46:43;11.20;99.90
8711;DHT22;4392;47.400;8.062;2024-02-16T03:49:11;11.30;99.90
8711;DHT22;4392;47.400;8.062;2024-02-16T03:51:39;11.30;99.90
8711;DHT22;4392;47.400;8.062;2024-02-16T03:54:05;11.40;99.90
8711;DHT22;4392;47.400;8.062;2024-02-16T03:56:31;11.40;99.90
8711;DHT22;4392;47.400;8.062;2024-02-16T03:58:56;11.30;99.90
8711;DHT22;4392;47.400;8.062;2024-02-16T04:01:23;11.30;99.90
8711;DHT22;4392;47.400;8.062;2024-02-16T04:03:48;11.30;99.90
8711;DHT22;4392;47.400;8.062;2024-02-16T04:06:18;11.20;99.90
8711;DHT22;4392;47.400;8.062;2024-02-16T04:08:44;11.20;99.90
8711;DHT22;4392;47.400;8.062;2024-02-16T04:11:11;11.10;99.90
8711;DHT22;4392;47.400;8.062;2024-02-16T04:13:38;11.10;99.90
8711;DHT22;4392;47.400;8.062;2024-02-16T04:16:04;11.10;99.90
8711;DHT22;4392;47.400;8.062;2024-02-16T04:18:30;12.30;99.90
8711;DHT22;4392;47.400;8.062;2024-02-16T04:20:55;12.20;99.90
8711;DHT22;4392;47.400;8.062;2024-02-16T04:23:21;11.70;99.90
8711;DHT22;4392;47.400;8.062;2024-02-16T04:25:46;11.50;99.90
8711;DHT22;4392;47.400;8.062;2024-02-16T04:28:12;11.40;99.90
8711;DHT22;4392;47.400;8.062;2024-02-16T04:30:38;11.30;99.90
8711;DHT22;4392;47.400;8.062;2024-02-16T04:33:04;11.10;99.90
8711;DHT22;4392;47.400;8.062;2024-02-16T04:35:30;11.10;99.90
8711;DHT22;4392;47.400;8.062;2024-02-16T04:37:56;11.00;99.90
8711;DHT22;4392;47.400;8.062;2024-02-16T04:40:21;11.00;99.90
8711;DHT22;4392;47.400;8.062;2024-02-16T04:42:47;10.90;99.90
8711;DHT22;4392;47.400;8.062;2024-02-16T04:45:13;10.90;99.90
8711;DHT22;4392;47.400;8.062;2024-02-16T04:47:39;10.70;99.90
8711;DHT22;4392;47.400;8.062;2024-02-16T04:50:06;10.80;99.90
8711;DHT22;4392;47.400;8.062;2024-02-16T04:52:36;10.60;99.90
8711;DHT22;4392;47.400;8.062;2024-02-16T04:55:02;11.20;99.90
8711;DHT22;4392;47.400;8.062;2024-02-16T04:57:27;12.50;99.90
8711;DHT22;4392;47.400;8.062;2024-02-16T04:59:53;11.90;99.90
8711;DHT22;4392;47.400;8.062;2024-02-16T05:02:19;11.40;99.90
8711;DHT22;4392;47.400;8.062;2024-02-16T05:04:44;10.80;99.90
8711;DHT22;4392;47.400;8.062;2024-02-16T05:07:10;10.80;99.90
8711;DHT22;4392;47.400;8.062;2024-02-16T05:09:35;10.80;99.90
8711;DHT22;4392;47.400;8.062;2024-02-16T05:12:01;10.80;99.90
8711;DHT22;4392;47.400;8.062;2024-02-16T05:14:27;10.70;99.90
8711;DHT22;4392;47.400;8.062;2024-02-16T05:16:53;10.60;99.90
8711;DHT22;4392;47.400;8.062;2024-02-16T05:19:19;10.70;99.90
8711;DHT22;4392;47.400;8.062;2024-02-16T05:21:44;10.40;99.90
8711;DHT22;4392;47.400;8.062;2024-02-16T05:24:10;10.30;99.90
8711;DHT22;4392;47.400;8.062;2024-02-16T05:26:36;10.50;99.90
8711;DHT22;4392;47.400;8.062;2024-02-16T05:29:02;10.50;99.90
8711;DHT22;4392;47.400;8.062;2024-02-16T05:31:30;10.50;99.90
8711;DHT22;4392;47.400;8.062;2024-02-16T05:33:57;10.40;99.90
8711;DHT22;4392;47.400;8.062;2024-02-16T05:36:23;10.40;99.90
8711;DHT22;4392;47.400;8.062;2024-02-16T05:38:55;10.40;99.90
8711;DHT22;4392;47.400;8.062;2024-02-16T05:41:22;10.40;99.90
8711;DHT22;4392;47.400;8.062;2024-02-16T05:43:47;10.30;99.90
8711;DHT22;4392;47.400;8.062;2024-02-16T05:46:17;10.40;99.90
8711;DHT22;4392;47.400;8.062;2024-02-16T05:48:43;10.80;99.90
8711;DHT22;4392;47.400;8.062;2024-02-16T05:51:09;11.60;99.90
8711;DHT22;4392;47.400;8.062;2024-02-16T05:53:38;11.20;99.90
8711;DHT22;4392;47.400;8.062;2024-02-16T05:56:04;11.00;99.90
8711;DHT22;4392;47.400;8.062;2024-02-16T05:58:30;10.80;99.90
8711;DHT22;4392;47.400;8.062;2024-02-16T06:00:58;10.70;99.90
8711;DHT22;4392;47.400;8.062;2024-02-16T06:03:24;10.60;99.90
8711;DHT22;4392;47.400;8.062;2024-02-16T06:05:52;11.20;99.90
8711;DHT22;4392;47.400;8.062;2024-02-16T06:08:19;12.10;99.90
8711;DHT22;4392;47.400;8.062;2024-02-16T06:10:45;11.60;99.90
8711;DHT22;4392;47.400;8.062;2024-02-16T06:13:17;11.20;99.90
8711;DHT22;4392;47.400;8.062;2024-02-16T06:15:43;11.00;99.90
8711;DHT22;4392;47.400;8.062;2024-02-16T06:18:08;10.90;99.90
8711;DHT22;4392;47.400;8.062;2024-02-16T06:20:35;10.80;99.90
8711;DHT22;4392;47.400;8.062;2024-02-16T06:23:00;10.70;99.90
8711;DHT22;4392;47.400;8.062;2024-02-16T06:25:26;11.50;99.90
8711;DHT22;4392;47.400;8.062;2024-02-16T06:27:51;12.10;99.90
8711;DHT22;4392;47.400;8.062;2024-02-16T06:30:17;11.60;99.90
8711;DHT22;4392;47.400;8.062;2024-02-16T06:32:42;11.20;99.90
8711;DHT22;4392;47.400;8.062;2024-02-16T06:35:08;11.00;99.90
8711;DHT22;4392;47.400;8.062;2024-02-16T06:37:34;10.80;99.90
8711;DHT22;4392;47.400;8.062;2024-02-16T06:40:00;10.70;99.90
8711;DHT22;4392;47.400;8.062;2024-02-16T06:42:26;10.60;99.90
8711;DHT22;4392;47.400;8.062;2024-02-16T06:44:51;10.60;99.90
8711;DHT22;4392;47.400;8.062;2024-02-16T06:47:17;10.50;99.90
8711;DHT22;4392;47.400;8.062;2024-02-16T06:49:44;10.50;99.90
8711;DHT22;4392;47.400;8.062;2024-02-16T06:52:11;10.50;99.90
8711;DHT22;4392;47.400;8.062;2024-02-16T06:54:37;10.40;99.90
8711;DHT22;4392;47.400;8.062;2024-02-16T06:57:03;10.40;99.90
8711;DHT22;4392;47.400;8.062;2024-02-16T06:59:29;10.50;99.90
8711;DHT22;4392;47.400;8.062;2024-02-16T07:01:54;10.40;99.90
8711;DHT22;4392;47.400;8.062;2024-02-16T07:04:20;10.40;99.90
8711;DHT22;4392;47.400;8.062;2024-02-16T07:06:45;11.80;99.90
8711;DHT22;4392;47.400;8.062;2024-02-16T07:09:13;12.80;99.90
8711;DHT22;4392;47.400;8.062;2024-02-16T07:11:43;12.50;99.70
8711;DHT22;4392;47.400;8.062;2024-02-16T07:14:12;11.80;99.90
8711;DHT22;4392;47.400;8.062;2024-02-16T07:16:38;11.50;99.90
8711;DHT22;4392;47.400;8.062;2024-02-16T07:19:04;11.20;99.90
8711;DHT22;4392;47.400;8.062;2024-02-16T07:21:30;11.00;99.90
8711;DHT22;4392;47.400;8.062;2024-02-16T07:23:56;10.80;99.90
8711;DHT22;4392;47.400;8.062;2024-02-16T07:26:22;10.80;99.90
8711;DHT22;4392;47.400;8.062;2024-02-16T07:28:47;10.70;99.90
8711;DHT22;4392;47.400;8.062;2024-02-16T07:31:13;10.80;99.90
8711;DHT22;4392;47.400;8.062;2024-02-16T07:33:40;10.70;99.90
8711;DHT22;4392;47.400;8.062;2024-02-16T07:36:06;10.70;99.90
8711;DHT22;4392;47.400;8.062;2024-02-16T07:38:31;10.80;99.90
8711;DHT22;4392;47.400;8.062;2024-02-16T07:40:57;12.20;99.90
8711;DHT22;4392;47.400;8.062;2024-02-16T07:43:23;11.80;99.90
8711;DHT22;4392;47.400;8.062;2024-02-16T07:45:50;11.50;99.90
8711;DHT22;4392;47.400;8.062;2024-02-16T07:48:15;11.20;99.90
8711;DHT22;4392;47.400;8.062;2024-02-16T07:50:41;11.10;99.90
8711;DHT22;4392;47.400;8.062;2024-02-16T07:53:07;11.00;99.90
8711;DHT22;4392;47.400;8.062;2024-02-16T07:55:32;10.90;99.90
8711;DHT22;4392;47.400;8.062;2024-02-16T07:57:58;10.90;99.90
8711;DHT22;4392;47.400;8.062;2024-02-16T08:00:25;10.90;99.90
8711;DHT22;4392;47.400;8.062;2024-02-16T08:02:53;10.80;99.90
8711;DHT22;4392;47.400;8.062;2024-02-16T08:05:18;10.80;99.90
8711;DHT22;4392;47.400;8.062;2024-02-16T08:07:45;10.70;99.90
8711;DHT22;4392;47.400;8.062;2024-02-16T08:10:12;10.80;99.90
8711;DHT22;4392;47.400;8.062;2024-02-16T08:12:38;10.80;99.90
8711;DHT22;4392;47.400;8.062;2024-02-16T08:15:04;10.80;99.90
8711;DHT22;4392;47.400;8.062;2024-02-16T08:17:36;10.80;99.90
8711;DHT22;4392;47.400;8.062;2024-02-16T08:20:02;10.90;99.90
8711;DHT22;4392;47.400;8.062;2024-02-16T08:22:28;10.90;99.90
8711;DHT22;4392;47.400;8.062;2024-02-16T08:24:54;10.90;99.90
8711;DHT22;4392;47.400;8.062;2024-02-16T08:27:20;10.90;99.90
8711;DHT22;4392;47.400;8.062;2024-02-16T08:29:46;11.00;99.90
8711;DHT22;4392;47.400;8.062;2024-02-16T08:32:11;11.00;99.90
8711;DHT22;4392;47.400;8.062;2024-02-16T08:34:38;11.00;99.90
8711;DHT22;4392;47.400;8.062;2024-02-16T08:37:04;11.00;99.90
8711;DHT22;4392;47.400;8.062;2024-02-16T08:39:30;10.90;99.90
8711;DHT22;4392;47.400;8.062;2024-02-16T08:41:56;10.80;99.90
8711;DHT22;4392;47.400;8.062;2024-02-16T08:44:22;10.90;99.90
8711;DHT22;4392;47.400;8.062;2024-02-16T08:46:48;10.70;99.90
8711;DHT22;4392;47.400;8.062;2024-02-16T08:49:15;10.80;99.90
8711;DHT22;4392;47.400;8.062;2024-02-16T08:51:41;10.90;99.90
8711;DHT22;4392;47.400;8.062;2024-02-16T08:54:10;11.00;99.90
8711;DHT22;4392;47.400;8.062;2024-02-16T08:56:36;11.00;99.90
8711;DHT22;4392;47.400;8.062;2024-02-16T08:59:05;11.00;99.90
8711;DHT22;4392;47.400;8.062;2024-02-16T09:01:36;11.00;99.90
8711;DHT22;4392;47.400;8.062;2024-02-16T09:04:02;11.10;99.90
8711;DHT22;4392;47.400;8.062;2024-02-16T09:06:28;11.10;99.90
8711;DHT22;4392;47.400;8.062;2024-02-16T09:08:54;11.00;99.90
8711;DHT22;4392;47.400;8.062;2024-02-16T09:11:20;11.10;99.90
8711;DHT22;4392;47.400;8.062;2024-02-16T09:13:47;11.10;99.90
8711;DHT22;4392;47.400;8.062;2024-02-16T09:16:13;11.10;99.90
8711;DHT22;4392;47.400;8.062;2024-02-16T09:18:39;11.20;99.90
8711;DHT22;4392;47.400;8.062;2024-02-16T09:21:05;11.10;99.90
8711;DHT22;4392;47.400;8.062;2024-02-16T09:23:35;10.80;99.90
8711;DHT22;4392;47.400;8.062;2024-02-16T09:26:01;10.80;99.90
8711;DHT22;4392;47.400;8.062;2024-02-16T09:28:32;10.90;99.90
8711;DHT22;4392;47.400;8.062;2024-02-16T09:30:58;11.10;99.90
8711;DHT22;4392;47.400;8.062;2024-02-16T09:33:24;11.20;99.90
8711;DHT22;4392;47.400;8.062;2024-02-16T09:35:51;11.30;99.90
8711;DHT22;4392;47.400;8.062;2024-02-16T09:38:17;11.40;99.90
8711;DHT22;4392;47.400;8.062;2024-02-16T09:40:43;11.30;99.90
8711;DHT22;4392;47.400;8.062;2024-02-16T09:43:26;11.40;99.90
8711;DHT22;4392;47.400;8.062;2024-02-16T09:45:55;11.40;99.90
8711;DHT22;4392;47.400;8.062;2024-02-16T09:48:22;11.50;99.90
8711;DHT22;4392;47.400;8.062;2024-02-16T09:50:50;11.40;99.90
8711;DHT22;4392;47.400;8.062;2024-02-16T09:53:16;11.30;99.90
8711;DHT22;4392;47.400;8.062;2024-02-16T09:55:43;11.10;99.90
8711;DHT22;4392;47.400;8.062;2024-02-16T09:58:11;10.90;99.90
8711;DHT22;4392;47.400;8.062;2024-02-16T10:00:47;10.90;99.90
8711;DHT22;4392;47.400;8.062;2024-02-16T10:03:31;11.20;99.90
8711;DHT22;4392;47.400;8.062;2024-02-16T10:06:10;11.40;99.90
8711;DHT22;4392;47.400;8.062;2024-02-16T10:08:53;11.60;99.90
8711;DHT22;4392;47.400;8.062;2024-02-16T10:11:23;11.70;99.90
8711;DHT22;4392;47.400;8.062;2024-02-16T10:14:03;11.80;99.60
8711;DHT22;4392;47.400;8.062;2024-02-16T10:16:29;11.70;99.20
8711;DHT22;4392;47.400;8.062;2024-02-16T10:19:05;11.80;99.60
8711;DHT22;4392;47.400;8.062;2024-02-16T10:21:32;11.90;99.40
8711;DHT22;4392;47.400;8.062;2024-02-16T10:24:07;12.00;99.30
8711;DHT22;4392;47.400;8.062;2024-02-16T10:26:34;12.00;98.90
8711;DHT22;4392;47.400;8.062;2024-02-16T10:29:04;11.70;99.20
8711;DHT22;4392;47.400;8.062;2024-02-16T10:31:31;11.70;98.90
8711;DHT22;4392;47.400;8.062;2024-02-16T10:33:59;11.70;99.40
8711;DHT22;4392;47.400;8.062;2024-02-16T10:36:27;11.70;99.20
8711;DHT22;4392;47.400;8.062;2024-02-16T10:38:56;11.80;99.40
8711;DHT22;4392;47.400;8.062;2024-02-16T10:41:27;12.00;98.90
8711;DHT22;4392;47.400;8.062;2024-02-16T10:43:56;12.20;98.70
8711;DHT22;4392;47.400;8.062;2024-02-16T10:46:25;12.30;98.10
8711;DHT22;4392;47.400;8.062;2024-02-16T10:48:51;12.30;98.00
8711;DHT22;4392;47.400;8.062;2024-02-16T10:51:34;12.40;97.60
8711;DHT22;4392;47.400;8.062;2024-02-16T10:54:01;12.50;97.30
8711;DHT22;4392;47.400;8.062;2024-02-16T10:56:37;12.40;97.30
8711;DHT22;4392;47.400;8.062;2024-02-16T10:59:05;12.50;97.40
8711;DHT22;4392;47.400;8.062;2024-02-16T11:01:41;12.50;97.40
8711;DHT22;4392;47.400;8.062;2024-02-16T11:04:10;12.60;97.10
8711;DHT22;4392;47.400;8.062;2024-02-16T11:06:53;12.60;96.90
8711;DHT22;4392;47.400;8.062;2024-02-16T11:09:28;12.50;96.40
8711;DHT22;4392;47.400;8.062;2024-02-16T11:12:04;12.50;97.00
8711;DHT22;4392;47.400;8.062;2024-02-16T11:17:07;12.50;97.10
8711;DHT22;4392;47.400;8.062;2024-02-16T11:19:34;12.60;97.00
8711;DHT22;4392;47.400;8.062;2024-02-16T11:22:05;12.60;96.80
8711;DHT22;4392;47.400;8.062;2024-02-16T11:24:35;12.50;96.60
8711;DHT22;4392;47.400;8.062;2024-02-16T11:27:05;12.50;96.80
8711;DHT22;4392;47.400;8.062;2024-02-16T11:29:38;12.60;97.00
8711;DHT22;4392;47.400;8.062;2024-02-16T11:32:07;12.50;96.80
8711;DHT22;4392;47.400;8.062;2024-02-16T11:34:35;12.60;97.20
8711;DHT22;4392;47.400;8.062;2024-02-16T11:37:03;12.70;97.10
8711;DHT22;4392;47.400;8.062;2024-02-16T11:39:30;12.80;97.40
8711;DHT22;4392;47.400;8.062;2024-02-16T11:42:08;12.80;96.90
8711;DHT22;4392;47.400;8.062;2024-02-16T11:44:37;12.90;97.00
8711;DHT22;4392;47.400;8.062;2024-02-16T11:47:06;12.80;97.00
8711;DHT22;4392;47.400;8.062;2024-02-16T11:49:34;12.80;96.70
8711;DHT22;4392;47.400;8.062;2024-02-16T11:52:00;12.70;97.50
8711;DHT22;4392;47.400;8.062;2024-02-16T11:54:26;12.80;97.40
8711;DHT22;4392;47.400;8.062;2024-02-16T11:56:52;12.80;97.10
8711;DHT22;4392;47.400;8.062;2024-02-16T11:59:21;12.90;97.30
8711;DHT22;4392;47.400;8.062;2024-02-16T12:01:55;12.90;97.20
8711;DHT22;4392;47.400;8.062;2024-02-16T12:04:28;12.80;97.40
8711;DHT22;4392;47.400;8.062;2024-02-16T12:06:58;12.80;97.50
8711;DHT22;4392;47.400;8.062;2024-02-16T12:09:24;12.80;97.70
8711;DHT22;4392;47.400;8.062;2024-02-16T12:11:52;12.70;98.20
8711;DHT22;4392;47.400;8.062;2024-02-16T12:14:22;12.90;98.30
8711;DHT22;4392;47.400;8.062;2024-02-16T12:16:52;12.90;98.10
8711;DHT22;4392;47.400;8.062;2024-02-16T12:19:21;13.10;97.90
8711;DHT22;4392;47.400;8.062;2024-02-16T12:21:50;13.20;97.60
8711;DHT22;4392;47.400;8.062;2024-02-16T12:24:17;13.20;97.50
8711;DHT22;4392;47.400;8.062;2024-02-16T12:26:42;13.20;97.70
8711;DHT22;4392;47.400;8.062;2024-02-16T12:29:08;13.20;97.70
8711;DHT22;4392;47.400;8.062;2024-02-16T12:31:38;13.20;97.80
8711;DHT22;4392;47.400;8.062;2024-02-16T12:34:05;13.10;98.20
8711;DHT22;4392;47.400;8.062;2024-02-16T12:36:33;13.30;98.10
8711;DHT22;4392;47.400;8.062;2024-02-16T12:39:00;13.40;98.10
8711;DHT22;4392;47.400;8.062;2024-02-16T12:41:25;13.40;98.00
8711;DHT22;4392;47.400;8.062;2024-02-16T12:43:51;13.30;98.10
8711;DHT22;4392;47.400;8.062;2024-02-16T12:46:19;13.40;98.30
8711;DHT22;4392;47.400;8.062;2024-02-16T12:48:44;13.30;98.30
8711;DHT22;4392;47.400;8.062;2024-02-16T12:51:10;13.30;98.70
8711;DHT22;4392;47.400;8.062;2024-02-16T12:53:36;13.30;99.00
8711;DHT22;4392;47.400;8.062;2024-02-16T12:56:09;13.40;98.80
8711;DHT22;4392;47.400;8.062;2024-02-16T12:58:37;13.50;98.80
8711;DHT22;4392;47.400;8.062;2024-02-16T13:01:03;13.60;98.70
8711;DHT22;4392;47.400;8.062;2024-02-16T13:03:35;13.60;98.60
8711;DHT22;4392;47.400;8.062;2024-02-16T13:06:01;13.70;98.50
8711;DHT22;4392;47.400;8.062;2024-02-16T13:08:28;13.70;98.30
8711;DHT22;4392;47.400;8.062;2024-02-16T13:10:55;13.60;98.40
8711;DHT22;4392;47.400;8.062;2024-02-16T13:13:21;13.70;98.40
8711;DHT22;4392;47.400;8.062;2024-02-16T13:15:47;13.70;98.80
8711;DHT22;4392;47.400;8.062;2024-02-16T13:18:13;13.70;98.50
8711;DHT22;4392;47.400;8.062;2024-02-16T13:20:39;13.60;98.70
8711;DHT22;4392;47.400;8.062;2024-02-16T13:23:05;13.60;98.60
8711;DHT22;4392;47.400;8.062;2024-02-16T13:25:31;13.60;98.80
8711;DHT22;4392;47.400;8.062;2024-02-16T13:27:56;13.70;98.80
8711;DHT22;4392;47.400;8.062;2024-02-16T13:30:22;13.70;98.70
8711;DHT22;4392;47.400;8.062;2024-02-16T13:32:50;13.70;98.60
8711;DHT22;4392;47.400;8.062;2024-02-16T13:35:16;13.60;98.40
8711;DHT22;4392;47.400;8.062;2024-02-16T13:37:41;13.50;99.10
8711;DHT22;4392;47.400;8.062;2024-02-16T13:40:07;13.70;99.10
8711;DHT22;4392;47.400;8.062;2024-02-16T13:42:38;13.60;98.70
8711;DHT22;4392;47.400;8.062;2024-02-16T13:45:04;13.60;99.10
8711;DHT22;4392;47.400;8.062;2024-02-16T13:47:32;13.60;98.80
8711;DHT22;4392;47.400;8.062;2024-02-16T13:49:58;13.70;99.10
8711;DHT22;4392;47.400;8.062;2024-02-16T13:52:27;13.70;98.90
8711;DHT22;4392;47.400;8.062;2024-02-16T13:54:54;13.70;98.80
8711;DHT22;4392;47.400;8.062;2024-02-16T13:57:20;13.80;98.60
8711;DHT22;4392;47.400;8.062;2024-02-16T13:59:46;13.90;98.30
8711;DHT22;4392;47.400;8.062;2024-02-16T14:02:12;13.90;98.00
8711;DHT22;4392;47.400;8.062;2024-02-16T14:04:39;13.90;97.90
8711;DHT22;4392;47.400;8.062;2024-02-16T14:07:07;13.90;98.10
8711;DHT22;4392;47.400;8.062;2024-02-16T14:09:32;13.80;98.10
8711;DHT22;4392;47.400;8.062;2024-02-16T14:11:58;13.80;98.30
8711;DHT22;4392;47.400;8.062;2024-02-16T14:14:25;13.80;98.20
8711;DHT22;4392;47.400;8.062;2024-02-16T14:16:55;13.80;98.30
8711;DHT22;4392;47.400;8.062;2024-02-16T14:19:22;13.80;98.50
8711;DHT22;4392;47.400;8.062;2024-02-16T14:21:50;13.80;98.80
8711;DHT22;4392;47.400;8.062;2024-02-16T14:24:16;13.80;98.60
8711;DHT22;4392;47.400;8.062;2024-02-16T14:26:44;13.80;98.60
8711;DHT22;4392;47.400;8.062;2024-02-16T14:29:09;13.80;98.60
8711;DHT22;4392;47.400;8.062;2024-02-16T14:31:38;13.90;98.50
8711;DHT22;4392;47.400;8.062;2024-02-16T14:34:04;13.90;98.60
8711;DHT22;4392;47.400;8.062;2024-02-16T14:36:30;13.80;98.70
8711;DHT22;4392;47.400;8.062;2024-02-16T14:38:55;13.90;98.60
8711;DHT22;4392;47.400;8.062;2024-02-16T14:41:21;13.90;98.40
8711;DHT22;4392;47.400;8.062;2024-02-16T14:43:50;13.90;98.50
8711;DHT22;4392;47.400;8.062;2024-02-16T14:46:18;13.90;98.70
8711;DHT22;4392;47.400;8.062;2024-02-16T14:48:45;13.90;99.20
8711;DHT22;4392;47.400;8.062;2024-02-16T14:51:12;13.90;99.20
8711;DHT22;4392;47.400;8.062;2024-02-16T14:53:38;13.90;99.10
8711;DHT22;4392;47.400;8.062;2024-02-16T14:56:04;13.90;99.20
8711;DHT22;4392;47.400;8.062;2024-02-16T14:58:29;13.90;99.40
8711;DHT22;4392;47.400;8.062;2024-02-16T15:00:55;14.00;99.50
8711;DHT22;4392;47.400;8.062;2024-02-16T15:03:22;14.00;99.90
8711;DHT22;4392;47.400;8.062;2024-02-16T15:05:48;14.10;99.90
8711;DHT22;4392;47.400;8.062;2024-02-16T15:08:13;14.70;99.90
8711;DHT22;4392;47.400;8.062;2024-02-16T15:10:40;14.40;99.90
8711;DHT22;4392;47.400;8.062;2024-02-16T15:13:05;14.30;99.90
8711;DHT22;4392;47.400;8.062;2024-02-16T15:15:31;14.30;99.90
8711;DHT22;4392;47.400;8.062;2024-02-16T15:17:57;14.30;99.90
8711;DHT22;4392;47.400;8.062;2024-02-16T15:20:26;14.30;99.90
8711;DHT22;4392;47.400;8.062;2024-02-16T15:22:58;14.40;99.90
8711;DHT22;4392;47.400;8.062;2024-02-16T15:25:24;14.40;99.90
8711;DHT22;4392;47.400;8.062;2024-02-16T15:27:50;14.40;99.90
8711;DHT22;4392;47.400;8.062;2024-02-16T15:30:17;14.50;99.90
8711;DHT22;4392;47.400;8.062;2024-02-16T15:32:43;14.50;99.90
8711;DHT22;4392;47.400;8.062;2024-02-16T15:35:09;14.50;99.90
8711;DHT22;4392;47.400;8.062;2024-02-16T15:37:35;14.90;99.90
8711;DHT22;4392;47.400;8.062;2024-02-16T15:40:00;15.50;99.90
8711;DHT22;4392;47.400;8.062;2024-02-16T15:42:28;15.30;99.90
8711;DHT22;4392;47.400;8.062;2024-02-16T15:44:57;15.10;99.90
8711;DHT22;4392;47.400;8.062;2024-02-16T15:47:24;14.90;99.90
8711;DHT22;4392;47.400;8.062;2024-02-16T15:49:50;14.80;99.90
8711;DHT22;4392;47.400;8.062;2024-02-16T15:52:15;14.50;99.90
8711;DHT22;4392;47.400;8.062;2024-02-16T15:54:41;14.50;99.90
8711;DHT22;4392;47.400;8.062;2024-02-16T15:57:07;14.50;99.90
8711;DHT22;4392;47.400;8.062;2024-02-16T15:59:35;14.50;99.90
8711;DHT22;4392;47.400;8.062;2024-02-16T16:02:01;14.30;99.90